EZY67NB LCLK-EGKK
Flight info
| Callsign | EZY67NB |
|---|---|
| Flight time | N/A |
| Altitude | 38000 |
| Route | PHA M31 GENOS DCT PEDER DCT EVENO DCT BENEM UN127 RIKSO DCT TALAS DCT MAVAR DCT RETRA DCT SIPAL DCT LABIN DCT VIC DCT RESIA DCT ELMUR DCT RIPUS DCT DITON DCT HOC DCT LUL DCT RLP DCT ROTSI DCT KOTUN DCT NINAL DCT KESAX DCT KUNAV |
| Aircraft | A20N/M-SDE2E3FGHIJ1RWXYZ/LB1G1 |
Departure
| Time | N/A |
|---|---|
| Airport | Larnaca International Airport (LCLK) |
Arrival
| Time | 2026-05-06 12:46 |
|---|---|
| Airport | London Gatwick Airport (EGKK) |
| Time | Latitude | Longitude | Altitude | Speed | Heading |
|---|---|---|---|---|---|
| 2026-05-06 12:16 | 49.74771 | 2.27184 | 36666 ft | 422 kts | 309° |
| 2026-05-06 12:16 | 49.76660 | 2.23727 | 36413 ft | 422 kts | 309° |
| 2026-05-06 12:17 | 49.78534 | 2.20293 | 36076 ft | 421 kts | 310° |
| 2026-05-06 12:17 | 49.80415 | 2.16840 | 35699 ft | 422 kts | 310° |
| 2026-05-06 12:17 | 49.82303 | 2.13369 | 35251 ft | 423 kts | 310° |
| 2026-05-06 12:17 | 49.84186 | 2.09906 | 34783 ft | 425 kts | 310° |
| 2026-05-06 12:18 | 49.86086 | 2.06412 | 34261 ft | 426 kts | 310° |
| 2026-05-06 12:18 | 49.87994 | 2.02900 | 33758 ft | 426 kts | 310° |
| 2026-05-06 12:18 | 49.89885 | 1.99414 | 33208 ft | 427 kts | 310° |
| 2026-05-06 12:18 | 49.91779 | 1.95916 | 32659 ft | 426 kts | 310° |
| 2026-05-06 12:19 | 49.93690 | 1.92377 | 32116 ft | 426 kts | 310° |
| 2026-05-06 12:19 | 49.95577 | 1.88879 | 31529 ft | 427 kts | 310° |
| 2026-05-06 12:19 | 49.97487 | 1.85332 | 30891 ft | 427 kts | 310° |
| 2026-05-06 12:19 | 49.99361 | 1.81844 | 30230 ft | 427 kts | 310° |
| 2026-05-06 12:20 | 50.01257 | 1.78313 | 29793 ft | 423 kts | 310° |
| 2026-05-06 12:20 | 50.03133 | 1.74812 | 29389 ft | 422 kts | 310° |
| 2026-05-06 12:20 | 50.05006 | 1.71326 | 28980 ft | 419 kts | 311° |
| 2026-05-06 12:20 | 50.06943 | 1.67999 | 28573 ft | 416 kts | 314° |
| 2026-05-06 12:21 | 50.09003 | 1.64861 | 28100 ft | 413 kts | 318° |
| 2026-05-06 12:21 | 50.11123 | 1.61924 | 27588 ft | 410 kts | 319° |
| 2026-05-06 12:21 | 50.13256 | 1.59036 | 27156 ft | 405 kts | 320° |
| 2026-05-06 12:21 | 50.15382 | 1.56164 | 26718 ft | 400 kts | 319° |
| 2026-05-06 12:22 | 50.17436 | 1.53383 | 26290 ft | 396 kts | 319° |
| 2026-05-06 12:22 | 50.19514 | 1.50561 | 25853 ft | 392 kts | 319° |
| 2026-05-06 12:22 | 50.21554 | 1.47784 | 25418 ft | 388 kts | 319° |
| 2026-05-06 12:22 | 50.23575 | 1.45030 | 24991 ft | 385 kts | 319° |
| 2026-05-06 12:23 | 50.25558 | 1.42321 | 24567 ft | 381 kts | 319° |
| 2026-05-06 12:23 | 50.27552 | 1.39592 | 24137 ft | 378 kts | 319° |
| 2026-05-06 12:23 | 50.29499 | 1.36925 | 23724 ft | 375 kts | 319° |
| 2026-05-06 12:23 | 50.31446 | 1.34252 | 23310 ft | 373 kts | 319° |
| 2026-05-06 12:24 | 50.33381 | 1.31596 | 22885 ft | 370 kts | 319° |
| 2026-05-06 12:24 | 50.35309 | 1.28948 | 22458 ft | 368 kts | 319° |
| 2026-05-06 12:24 | 50.37215 | 1.26325 | 22037 ft | 365 kts | 319° |
| 2026-05-06 12:24 | 50.39104 | 1.23725 | 21616 ft | 363 kts | 319° |
| 2026-05-06 12:25 | 50.41003 | 1.21106 | 21189 ft | 360 kts | 319° |
| 2026-05-06 12:25 | 50.42863 | 1.18539 | 20773 ft | 358 kts | 319° |
| 2026-05-06 12:25 | 50.44711 | 1.15985 | 20358 ft | 355 kts | 319° |
| 2026-05-06 12:25 | 50.46547 | 1.13443 | 19945 ft | 353 kts | 319° |
| 2026-05-06 12:26 | 50.48373 | 1.10911 | 19533 ft | 350 kts | 319° |
| 2026-05-06 12:26 | 50.50190 | 1.08394 | 19127 ft | 348 kts | 319° |
| 2026-05-06 12:26 | 50.51952 | 1.05787 | 18704 ft | 346 kts | 315° |
| 2026-05-06 12:26 | 50.53599 | 1.03077 | 18271 ft | 344 kts | 314° |
| 2026-05-06 12:27 | 50.55228 | 1.00334 | 17851 ft | 342 kts | 313° |
| 2026-05-06 12:27 | 50.56832 | 0.97625 | 17432 ft | 340 kts | 313° |
| 2026-05-06 12:27 | 50.58441 | 0.94906 | 17014 ft | 338 kts | 313° |
| 2026-05-06 12:27 | 50.60023 | 0.92228 | 16599 ft | 336 kts | 313° |
| 2026-05-06 12:28 | 50.61595 | 0.89566 | 16407 ft | 325 kts | 313° |
| 2026-05-06 12:28 | 50.63093 | 0.87027 | 16285 ft | 313 kts | 313° |
| 2026-05-06 12:28 | 50.64538 | 0.84579 | 16156 ft | 301 kts | 313° |
| 2026-05-06 12:28 | 50.65948 | 0.82186 | 16043 ft | 290 kts | 313° |
| 2026-05-06 12:29 | 50.67282 | 0.79904 | 15944 ft | 278 kts | 311° |
| 2026-05-06 12:29 | 50.68486 | 0.77628 | 15933 ft | 270 kts | 309° |
| 2026-05-06 12:29 | 50.69657 | 0.75343 | 15852 ft | 267 kts | 309° |
| 2026-05-06 12:29 | 50.70810 | 0.73082 | 15504 ft | 267 kts | 309° |
| 2026-05-06 12:30 | 50.71981 | 0.70785 | 15123 ft | 267 kts | 309° |
| 2026-05-06 12:30 | 50.73073 | 0.68433 | 14773 ft | 276 kts | 301° |
| 2026-05-06 12:30 | 50.74046 | 0.65604 | 14411 ft | 309 kts | 297° |
| 2026-05-06 12:30 | 50.75028 | 0.62507 | 14046 ft | 324 kts | 297° |
| 2026-05-06 12:31 | 50.76031 | 0.59296 | 13737 ft | 325 kts | 297° |
| 2026-05-06 12:31 | 50.77011 | 0.56144 | 13488 ft | 325 kts | 297° |
| 2026-05-06 12:31 | 50.77999 | 0.52951 | 13243 ft | 324 kts | 297° |
| 2026-05-06 12:31 | 50.78981 | 0.49761 | 12976 ft | 322 kts | 297° |
| 2026-05-06 12:32 | 50.79963 | 0.46553 | 12716 ft | 321 kts | 297° |
| 2026-05-06 12:32 | 50.80914 | 0.43430 | 12358 ft | 320 kts | 297° |
| 2026-05-06 12:32 | 50.81878 | 0.40246 | 11984 ft | 318 kts | 297° |
| 2026-05-06 12:32 | 50.82822 | 0.37109 | 11603 ft | 316 kts | 297° |
| 2026-05-06 12:33 | 50.83752 | 0.34012 | 11231 ft | 314 kts | 296° |
| 2026-05-06 12:33 | 50.84683 | 0.30898 | 10853 ft | 313 kts | 296° |
| 2026-05-06 12:33 | 50.85610 | 0.27788 | 10470 ft | 310 kts | 296° |
| 2026-05-06 12:33 | 50.86514 | 0.24753 | 10092 ft | 306 kts | 296° |
| 2026-05-06 12:34 | 50.87414 | 0.21716 | 9719 ft | 302 kts | 296° |
| 2026-05-06 12:34 | 50.88291 | 0.18735 | 9345 ft | 298 kts | 296° |
| 2026-05-06 12:34 | 50.89145 | 0.15802 | 8954 ft | 295 kts | 296° |
| 2026-05-06 12:34 | 50.89994 | 0.12856 | 8570 ft | 292 kts | 296° |
| 2026-05-06 12:35 | 50.90828 | 0.09947 | 8209 ft | 288 kts | 296° |
| 2026-05-06 12:35 | 50.91645 | 0.07084 | 7860 ft | 280 kts | 296° |
| 2026-05-06 12:35 | 50.92424 | 0.04342 | 7548 ft | 271 kts | 296° |
| 2026-05-06 12:35 | 50.93194 | 0.01619 | 7224 ft | 270 kts | 296° |
| 2026-05-06 12:36 | 50.93953 | -0.01069 | 7063 ft | 270 kts | 296° |
| 2026-05-06 12:36 | 50.94719 | -0.03783 | 6923 ft | 269 kts | 296° |
| 2026-05-06 12:36 | 50.95479 | -0.06490 | 6759 ft | 268 kts | 296° |
| 2026-05-06 12:36 | 50.96228 | -0.09167 | 6619 ft | 268 kts | 296° |
| 2026-05-06 12:37 | 50.96904 | -0.11897 | 6486 ft | 268 kts | 286° |
| 2026-05-06 12:37 | 50.97179 | -0.14832 | 6363 ft | 269 kts | 278° |
| 2026-05-06 12:37 | 50.97325 | -0.17770 | 6236 ft | 269 kts | 276° |
| 2026-05-06 12:37 | 50.97449 | -0.20731 | 6108 ft | 269 kts | 276° |
| 2026-05-06 12:38 | 50.97572 | -0.23725 | 5985 ft | 269 kts | 276° |
| 2026-05-06 12:38 | 50.97689 | -0.26654 | 5858 ft | 269 kts | 276° |
| 2026-05-06 12:38 | 50.97807 | -0.29611 | 5633 ft | 269 kts | 276° |
| 2026-05-06 12:38 | 50.97920 | -0.32540 | 5363 ft | 265 kts | 276° |
| 2026-05-06 12:39 | 50.98030 | -0.35442 | 5083 ft | 260 kts | 276° |
| 2026-05-06 12:39 | 50.98142 | -0.38280 | 4805 ft | 255 kts | 279° |
| 2026-05-06 12:39 | 50.98659 | -0.40863 | 4518 ft | 247 kts | 307° |
| 2026-05-06 12:39 | 50.99911 | -0.42662 | 4284 ft | 243 kts | 334° |
| 2026-05-06 12:40 | 51.01434 | -0.43746 | 4085 ft | 242 kts | 340° |
| 2026-05-06 12:40 | 51.02998 | -0.44688 | 3887 ft | 241 kts | 341° |
| 2026-05-06 12:40 | 51.04575 | -0.45616 | 3682 ft | 237 kts | 341° |
| 2026-05-06 12:40 | 51.06089 | -0.46515 | 3490 ft | 226 kts | 341° |
| 2026-05-06 12:41 | 51.07513 | -0.47357 | 3348 ft | 210 kts | 345° |
| 2026-05-06 12:41 | 51.08887 | -0.47476 | 3167 ft | 194 kts | 19° |
| 2026-05-06 12:41 | 51.09934 | -0.46322 | 3021 ft | 181 kts | 51° |
| 2026-05-06 12:41 | 51.10568 | -0.44643 | 3031 ft | 179 kts | 59° |
| 2026-05-06 12:42 | 51.11143 | -0.42866 | 2956 ft | 179 kts | 61° |
| 2026-05-06 12:42 | 51.11609 | -0.41060 | 2758 ft | 177 kts | 67° |
| 2026-05-06 12:42 | 51.11977 | -0.39204 | 2515 ft | 172 kts | 70° |
| 2026-05-06 12:42 | 51.12285 | -0.37412 | 2281 ft | 167 kts | 72° |
| 2026-05-06 12:43 | 51.12541 | -0.35670 | 2083 ft | 159 kts | 73° |
| 2026-05-06 12:43 | 51.12777 | -0.33944 | 1904 ft | 159 kts | 74° |
| 2026-05-06 12:43 | 51.13009 | -0.32218 | 1678 ft | 157 kts | 74° |
| 2026-05-06 12:43 | 51.13225 | -0.30602 | 1440 ft | 143 kts | 73° |
| 2026-05-06 12:44 | 51.13425 | -0.29135 | 1240 ft | 131 kts | 73° |
| 2026-05-06 12:44 | 51.13623 | -0.27713 | 1094 ft | 133 kts | 71° |
| 2026-05-06 12:44 | 51.13825 | -0.26283 | 958 ft | 130 kts | 75° |
| 2026-05-06 12:44 | 51.14002 | -0.24884 | 777 ft | 131 kts | 72° |
| 2026-05-06 12:45 | 51.14201 | -0.23457 | 585 ft | 131 kts | 73° |
| 2026-05-06 12:45 | 51.14397 | -0.22030 | 400 ft | 132 kts | 74° |
| 2026-05-06 12:45 | 51.14783 | -0.19262 | 200 ft | 106 kts | 76° |
| 2026-05-06 12:46 | 51.14911 | -0.18334 | 200 ft | 69 kts | 79° |
| 2026-05-06 12:46 | 51.14997 | -0.17919 | 200 ft | 28 kts | 55° |
| 2026-05-06 12:46 | 51.15072 | -0.17769 | 200 ft | 8 kts | 38° |
| 2026-05-06 12:46 | 51.15094 | -0.17755 | 199 ft | 0 kts | 9° |
| 2026-05-06 12:47 | 51.15117 | -0.17756 | 199 ft | 7 kts | 354° |
| 2026-05-06 12:47 | 51.15193 | -0.17770 | 200 ft | 13 kts | 353° |
| 2026-05-06 12:47 | 51.15259 | -0.17740 | 200 ft | 11 kts | 63° |
| 2026-05-06 12:48 | 51.15279 | -0.17603 | 199 ft | 13 kts | 78° |
| 2026-05-06 12:48 | 51.15297 | -0.17446 | 200 ft | 15 kts | 81° |
| 2026-05-06 12:48 | 51.15343 | -0.17368 | 200 ft | 11 kts | 356° |
| 2026-05-06 12:48 | 51.15432 | -0.17397 | 200 ft | 15 kts | 348° |
| 2026-05-06 12:49 | 51.15545 | -0.17437 | 200 ft | 16 kts | 346° |
| 2026-05-06 12:49 | 51.15659 | -0.17478 | 200 ft | 16 kts | 348° |
| 2026-05-06 12:49 | 51.15743 | -0.17517 | 200 ft | 9 kts | 321° |
| 2026-05-06 12:49 | 51.15747 | -0.17626 | 200 ft | 12 kts | 257° |
| 2026-05-06 12:50 | 51.15725 | -0.17779 | 200 ft | 15 kts | 256° |
| 2026-05-06 12:50 | 51.15700 | -0.17865 | 199 ft | 6 kts | 198° |
| 2026-05-06 12:50 | 51.15659 | -0.17856 | 200 ft | 5 kts | 168° |
| 2026-05-06 12:50 | 51.15647 | -0.17852 | 200 ft | 1 kts | 168° |
| 2026-05-06 12:51 | 51.15642 | -0.17850 | 199 ft | 0 kts | 167° |